Time;durP1;ratioP1;P1;durP2;ratioP2;P2;SDS_P1;SDS_P2;PMS_P1;PMS_P2;Temp;Humidity;BMP_temperature;BMP_pressure;BME280_temperature;BME280_humidity;BME280_pressure;Samples;Min_cycle;Max_cycle;Signal;HPM_P1;HPM_P2
2023/01/01 00:01:55;;;;;;;;;;;;;;;6.25;100.00;93830.50;5042595;28;19932;-79
2023/01/01 00:04:21;;;;;;;;;;;;;;;6.27;100.00;93828.47;5075321;28;19951;-79
2023/01/01 00:06:46;;;;;;;;;;;;;;;6.28;100.00;93834.44;5056863;28;19919;-79
2023/01/01 00:11:56;;;;;;;;;;;;;;;6.28;100.00;93834.44;5075283;28;20488;-78
2023/01/01 00:14:21;;;;;;;;;;;;;;;6.29;100.00;93831.63;5074716;28;19916;-79
2023/01/01 00:16:47;;;;;;;;;;;;;;;6.30;100.00;93827.22;5074870;28;20016;-78
2023/01/01 00:19:12;;;;;;;;;;;;;;;6.30;100.00;93827.22;5052157;28;19968;-79
2023/01/01 00:21:38;;;;;;;;;;;;;;;6.29;100.00;93834.22;5071099;28;20431;-79
2023/01/01 00:24:05;;;;;;;;;;;;;;;6.30;100.00;93833.19;5074263;28;19924;-79
2023/01/01 00:26:31;;;;;;;;;;;;;;;6.31;100.00;93828.81;5074746;28;19912;-78
2023/01/01 00:28:56;;;;;;;;;;;;;;;6.28;100.00;93830.03;5074124;28;20050;-79
2023/01/01 00:31:22;;;;;;;;;;;;;;;6.28;100.00;93824.84;5090444;28;19916;-78
2023/01/01 00:33:52;;;;;;;;;;;;;;;6.27;100.00;93828.47;5074918;28;19912;-78
2023/01/01 00:36:18;;;;;;;;;;;;;;;6.25;100.00;93825.28;5074065;28;19920;-79
2023/01/01 00:38:44;;;;;;;;;;;;;;;6.24;100.00;93828.91;5074126;28;20313;-79
2023/01/01 00:41:10;;;;;;;;;;;;;;;6.23;100.00;93827.31;5039941;28;19920;-78
2023/01/01 00:43:35;;;;;;;;;;;;;;;6.22;100.00;93830.97;5074910;28;20468;-78
2023/01/01 00:46:01;;;;;;;;;;;;;;;6.24;100.00;93826.31;5074320;28;19999;-79
2023/01/01 00:48:27;;;;;;;;;;;;;;;6.23;100.00;93830.72;5073892;28;20286;-79
2023/01/01 00:50:52;;;;;;;;;;;;;;;6.24;100.00;93826.31;5074427;28;19966;-79
2023/01/01 00:53:18;;;;;;;;;;;;;;;6.23;100.00;93829.94;5074325;28;20332;-79
2023/01/01 00:55:44;;;;;;;;;;;;;;;6.22;100.00;93826.53;5074439;28;19916;-79
2023/01/01 00:58:10;;;;;;;;;;;;;;;6.23;100.00;93827.31;5074174;28;19939;-78
2023/01/01 01:00:35;;;;;;;;;;;;;;;6.23;100.00;93827.31;5057066;28;19999;-79
2023/01/01 01:03:01;;;;;;;;;;;;;;;6.21;100.00;93827.56;5061729;28;19947;-77
2023/01/01 01:05:26;;;;;;;;;;;;;;;6.23;100.00;93832.53;5045349;28;19956;-78
2023/01/01 01:07:52;;;;;;;;;;;;;;;6.20;100.00;93823.38;5061960;28;19939;-78
2023/01/01 01:10:20;;;;;;;;;;;;;;;6.19;100.00;93815.78;5058083;28;19952;-79
2023/01/01 01:12:45;;;;;;;;;;;;;;;6.17;100.00;93810.84;5053401;28;19916;-78
2023/01/01 01:15:11;;;;;;;;;;;;;;;6.21;100.00;93811.16;5065960;28;20255;-78
2023/01/01 01:17:37;;;;;;;;;;;;;;;6.20;100.00;93812.19;5074139;28;20393;-79
2023/01/01 01:20:02;;;;;;;;;;;;;;;6.19;100.00;93821.00;5055342;28;20286;-79
2023/01/01 01:22:28;;;;;;;;;;;;;;;6.18;100.00;93809.81;5073708;28;19915;-79
2023/01/01 01:24:53;;;;;;;;;;;;;;;6.18;100.00;93814.22;5073139;28;19919;-78
2023/01/01 01:27:19;;;;;;;;;;;;;;;6.16;100.00;93826.66;5072749;28;19916;-78
2023/01/01 01:29:44;;;;;;;;;;;;;;;6.16;100.00;93821.44;5035645;28;20295;-78
2023/01/01 01:32:11;;;;;;;;;;;;;;;6.15;100.00;93822.47;5053536;28;19927;-78
2023/01/01 01:34:36;;;;;;;;;;;;;;;6.16;100.00;93813.66;5070342;28;19924;-79
2023/01/01 01:37:01;;;;;;;;;;;;;;;6.18;100.00;93820.19;5055550;28;19926;-76
2023/01/01 01:39:27;;;;;;;;;;;;;;;6.19;100.00;93815.78;5038250;28;19956;-78
2023/01/01 01:41:52;;;;;;;;;;;;;;;6.20;100.00;93815.56;5073785;28;19923;-77
2023/01/01 01:44:36;;;;;;;;;;;;;;;6.20;100.00;93817.38;5073717;28;19984;-78
2023/01/01 01:47:02;;;;;;;;;;;;;;;6.21;100.00;93819.78;5055172;28;19970;-79
2023/01/01 01:49:29;;;;;;;;;;;;;;;6.22;100.00;93810.16;5055366;28;20321;-78
2023/01/01 01:51:55;;;;;;;;;;;;;;;6.23;100.00;93807.31;5055221;28;19912;-79
2023/01/01 01:54:23;;;;;;;;;;;;;;;6.24;100.00;93805.53;5072998;28;20019;-79
2023/01/01 01:56:54;;;;;;;;;;;;;;;6.24;100.00;93803.72;5053183;28;19962;-79
2023/01/01 01:59:21;;;;;;;;;;;;;;;6.29;100.00;93805.63;5035507;28;19920;-78
2023/01/01 02:01:46;;;;;;;;;;;;;;;6.31;100.00;93793.19;5070926;28;20011;-78
2023/01/01 02:04:12;;;;;;;;;;;;;;;6.34;100.00;93797.13;5038362;28;19939;-79
2023/01/01 02:06:38;;;;;;;;;;;;;;;6.35;100.00;93796.91;5073416;28;19916;-78
2023/01/01 02:09:05;;;;;;;;;;;;;;;6.33;100.00;93790.38;5051172;28;19916;-78
2023/01/01 02:11:30;;;;;;;;;;;;;;;6.30;100.00;93791.59;5055514;28;20286;-78
2023/01/01 02:13:56;;;;;;;;;;;;;;;6.28;100.00;93787.63;5065197;28;20003;-78
2023/01/01 02:16:28;;;;;;;;;;;;;;;6.27;100.00;93780.88;5072857;28;19916;-78
2023/01/01 02:19:06;;;;;;;;;;;;;;;6.26;100.00;93772.28;5055359;28;19912;-78
2023/01/01 02:21:34;;;;;;;;;;;;;;;6.28;100.00;93767.63;5072520;28;20314;-78
2023/01/01 02:24:11;;;;;;;;;;;;;;;6.28;100.00;93767.63;5073047;28;20011;-79
2023/01/01 02:26:41;;;;;;;;;;;;;;;6.30;100.00;93762.97;5072762;28;19912;-78
2023/01/01 02:29:06;;;;;;;;;;;;;;;6.30;100.00;93755.19;5072928;28;20313;-78
2023/01/01 02:31:35;;;;;;;;;;;;;;;6.32;100.00;93754.97;5037684;28;20390;-78
2023/01/01 02:34:03;;;;;;;;;;;;;;;6.30;100.00;93752.56;5072690;28;19916;-78
2023/01/01 02:36:31;;;;;;;;;;;;;;;6.28;100.00;93746.81;5072619;28;19966;-78
2023/01/01 02:38:59;;;;;;;;;;;;;;;6.27;100.00;93750.44;5077233;28;20374;-78
2023/01/01 02:41:27;;;;;;;;;;;;;;;6.27;100.00;93745.25;5076449;28;20384;-78
2023/01/01 02:43:53;;;;;;;;;;;;;;;6.27;100.00;93742.66;5058320;28;20302;-78
2023/01/01 02:46:18;;;;;;;;;;;;;;;6.29;100.00;93742.44;5081255;28;19916;-77
2023/01/01 02:48:48;;;;;;;;;;;;;;;6.29;100.00;93742.44;5083762;28;19923;-77
2023/01/01 02:51:18;;;;;;;;;;;;;;;6.29;100.00;93748.41;5083197;28;19912;-77
2023/01/01 02:53:47;;;;;;;;;;;;;;;6.30;100.00;93744.00;5049129;28;19927;-78
2023/01/01 02:56:25;;;;;;;;;;;;;;;6.30;100.00;93744.00;5056748;28;20031;-79
2023/01/01 03:01:55;;;;;;;;;;;;;;;6.33;100.00;93736.53;5038391;28;19919;-78
2023/01/01 03:04:28;;;;;;;;;;;;;;;6.32;100.00;93737.53;5073758;28;19912;-78
2023/01/01 03:07:00;;;;;;;;;;;;;;;6.32;100.00;93753.16;5076219;28;19923;-78
2023/01/01 03:09:29;;;;;;;;;;;;;;;6.31;100.00;93746.38;5056838;28;20022;-79
2023/01/01 03:12:05;;;;;;;;;;;;;;;6.25;100.00;93739.47;5058157;28;19936;-78
2023/01/01 03:14:40;;;;;;;;;;;;;;;6.31;100.00;93754.19;5057962;28;20309;-78
2023/01/01 03:17:09;;;;;;;;;;;;;;;6.31;100.00;93751.56;5075390;28;20370;-78
2023/01/01 03:19:36;;;;;;;;;;;;;;;6.31;100.00;93746.38;5075245;28;20263;-78
2023/01/01 03:22:07;;;;;;;;;;;;;;;6.33;100.00;93744.34;5075755;28;20018;-78
2023/01/01 03:24:35;;;;;;;;;;;;;;;6.32;100.00;93742.75;5055698;28;19948;-78
2023/01/01 03:27:21;;;;;;;;;;;;;;;6.34;100.00;93750.31;5075775;28;19913;-79
2023/01/01 03:29:49;;;;;;;;;;;;;;;6.27;100.00;93747.84;5055416;28;19917;-78
2023/01/01 03:32:18;;;;;;;;;;;;;;;6.20;100.00;93739.38;5055648;28;19962;-78
2023/01/01 03:34:49;;;;;;;;;;;;;;;6.15;100.00;93745.25;5046856;28;19916;-77
2023/01/01 03:37:18;;;;;;;;;;;;;;;6.12;100.00;93745.69;5055569;28;19912;-78
2023/01/01 03:39:46;;;;;;;;;;;;;;;6.12;100.00;93747.50;5055343;28;19908;-78
2023/01/01 03:42:35;;;;;;;;;;;;;;;6.11;100.00;93745.94;5037569;28;19913;-77
2023/01/01 03:45:04;;;;;;;;;;;;;;;6.10;100.00;93744.34;5037307;28;19924;-78
2023/01/01 03:47:30;;;;;;;;;;;;;;;6.19;100.00;93745.59;5055626;28;20390;-78
2023/01/01 03:49:56;;;;;;;;;;;;;;;6.21;100.00;93743.53;5054835;28;20011;-78
2023/01/01 03:52:42;;;;;;;;;;;;;;;6.20;100.00;93740.16;5037376;28;19919;-78
2023/01/01 03:55:07;;;;;;;;;;;;;;;6.16;100.00;93746.06;5055321;28;19921;-77
2023/01/01 03:57:42;;;;;;;;;;;;;;;6.16;100.00;93744.22;5055831;28;20037;-78
2023/01/01 04:00:08;;;;;;;;;;;;;;;6.17;100.00;93739.81;5055202;28;20354;-78
2023/01/01 04:03:01;;;;;;;;;;;;;;;6.16;100.00;93735.66;5054975;28;19977;-77
2023/01/01 04:05:28;;;;;;;;;;;;;;;6.17;100.00;93737.22;5055706;28;19951;-78
2023/01/01 04:07:54;;;;;;;;;;;;;;;6.18;100.00;93736.22;5055151;28;19913;-78
2023/01/01 04:10:20;;;;;;;;;;;;;;;6.18;100.00;93739.59;5055068;28;19940;-77
2023/01/01 04:12:47;;;;;;;;;;;;;;;6.21;100.00;93740.94;5037493;28;19924;-78
2023/01/01 04:15:14;;;;;;;;;;;;;;;6.23;100.00;93746.72;5053463;28;19917;-78
2023/01/01 04:17:39;;;;;;;;;;;;;;;6.25;100.00;93742.06;5020447;28;19962;-78
2023/01/01 04:20:06;;;;;;;;;;;;;;;6.26;100.00;93741.06;5054991;28;19968;-79
2023/01/01 04:22:32;;;;;;;;;;;;;;;6.28;100.00;93749.41;5036062;28;19952;-77
2023/01/01 04:24:57;;;;;;;;;;;;;;;6.30;100.00;93739.56;5054475;28;20436;-79
2023/01/01 04:27:23;;;;;;;;;;;;;;;6.33;100.00;93741.75;5036978;28;19995;-78
2023/01/01 04:29:49;;;;;;;;;;;;;;;6.32;100.00;93742.75;5074584;28;20346;-78
2023/01/01 04:32:14;;;;;;;;;;;;;;;6.31;100.00;93748.97;5055698;28;20388;-78
2023/01/01 04:34:40;;;;;;;;;;;;;;;6.32;100.00;93760.94;5074321;28;20035;-78
2023/01/01 04:37:05;;;;;;;;;;;;;;;6.31;100.00;93753.41;5074828;28;19922;-78
2023/01/01 04:39:30;;;;;;;;;;;;;;;6.33;100.00;93759.94;5056692;28;20284;-78
2023/01/01 04:41:56;;;;;;;;;;;;;;;6.36;100.00;93756.88;5074485;28;19916;-77
2023/01/01 04:44:21;;;;;;;;;;;;;;;6.36;100.00;93754.28;5073018;28;19923;-78
2023/01/01 04:46:47;;;;;;;;;;;;;;;6.37;100.00;93750.66;5074679;28;19944;-78
2023/01/01 04:49:12;;;;;;;;;;;;;;;6.40;100.00;93750.19;5074406;28;20080;-78
2023/01/01 04:51:38;;;;;;;;;;;;;;;6.51;100.00;93751.22;5074318;28;20317;-78
2023/01/01 04:54:03;;;;;;;;;;;;;;;6.54;100.00;93749.94;5056800;28;19912;-78
2023/01/01 04:56:29;;;;;;;;;;;;;;;6.48;100.00;93751.66;5073735;28;19923;-78
2023/01/01 04:58:56;;;;;;;;;;;;;;;6.40;100.00;93749.41;5055952;28;20381;-79
2023/01/01 05:01:26;;;;;;;;;;;;;;;6.36;100.00;93754.28;5072452;28;19912;-78
2023/01/01 05:03:51;;;;;;;;;;;;;;;6.34;100.00;93745.13;5071999;28;19929;-78
2023/01/01 05:06:18;;;;;;;;;;;;;;;6.32;100.00;93752.34;5039874;28;19916;-79
2023/01/01 05:08:45;;;;;;;;;;;;;;;6.39;100.00;93753.81;5073807;28;19908;-80
2023/01/01 05:11:14;;;;;;;;;;;;;;;6.37;100.00;93757.66;5056084;28;19912;-79
2023/01/01 05:13:40;;;;;;;;;;;;;;;6.32;100.00;93753.16;5055362;28;20330;-78
2023/01/01 05:16:07;;;;;;;;;;;;;;;6.30;100.00;93749.97;5073121;28;19919;-78
2023/01/01 05:18:33;;;;;;;;;;;;;;;6.29;100.00;93758.81;5073802;28;19919;-78
2023/01/01 05:20:59;;;;;;;;;;;;;;;6.27;100.00;93750.44;5055791;28;19957;-78
2023/01/01 05:23:25;;;;;;;;;;;;;;;6.27;100.00;93754.88;5073347;28;19920;-79
2023/01/01 05:25:50;;;;;;;;;;;;;;;6.25;100.00;93752.47;5056051;28;20359;-78
2023/01/01 05:28:16;;;;;;;;;;;;;;;6.24;100.00;93743.91;5073938;28;19964;-79
2023/01/01 05:30:41;;;;;;;;;;;;;;;6.25;100.00;93744.69;5056164;28;19919;-78
2023/01/01 05:33:06;;;;;;;;;;;;;;;6.25;100.00;93740.25;5074086;28;19972;-78
2023/01/01 05:35:32;;;;;;;;;;;;;;;6.25;100.00;93744.69;5042086;28;19975;-78
2023/01/01 05:37:59;;;;;;;;;;;;;;;6.26;100.00;93754.06;5035846;28;19927;-78
2023/01/01 05:40:24;;;;;;;;;;;;;;;6.27;100.00;93747.06;5053813;28;20007;-79
2023/01/01 05:42:49;;;;;;;;;;;;;;;6.27;100.00;93750.44;5050984;28;19970;-79
2023/01/01 05:45:15;;;;;;;;;;;;;;;6.29;100.00;93751.00;5073901;28;20370;-79
2023/01/01 05:47:40;;;;;;;;;;;;;;;6.29;100.00;93751.00;5073778;28;20007;-78
2023/01/01 05:50:06;;;;;;;;;;;;;;;6.31;100.00;93759.38;5055693;28;19962;-79
2023/01/01 05:52:31;;;;;;;;;;;;;;;6.30;100.00;93754.41;5073800;28;19979;-78
2023/01/01 05:54:57;;;;;;;;;;;;;;;6.31;100.00;93758.59;5054446;28;19926;-79
2023/01/01 05:57:22;;;;;;;;;;;;;;;6.30;100.00;93755.19;5055644;28;19916;-78
2023/01/01 05:59:48;;;;;;;;;;;;;;;6.31;100.00;93756.00;5073632;28;19916;-78
2023/01/01 06:02:13;;;;;;;;;;;;;;;6.33;100.00;93769.56;5073398;28;19913;-79
2023/01/01 06:04:39;;;;;;;;;;;;;;;6.33;100.00;93770.34;5073535;28;19960;-78
2023/01/01 06:07:06;;;;;;;;;;;;;;;6.33;100.00;93765.16;5073060;28;19916;-78
2023/01/01 06:09:31;;;;;;;;;;;;;;;6.35;100.00;93767.50;5073248;28;19908;-78
2023/01/01 06:11:57;;;;;;;;;;;;;;;6.36;100.00;93764.69;5073636;28;20385;-78
2023/01/01 06:14:22;;;;;;;;;;;;;;;6.49;100.00;93770.66;5059338;28;19916;-77
2023/01/01 06:16:48;;;;;;;;;;;;;;;6.51;100.00;93769.41;5078002;28;19916;-79
2023/01/01 06:19:13;;;;;;;;;;;;;;;6.45;100.00;93771.09;5077051;28;19979;-78
2023/01/01 06:21:38;;;;;;;;;;;;;;;6.42;100.00;93768.19;5077247;28;20396;-79
2023/01/01 06:24:04;;;;;;;;;;;;;;;6.39;100.00;93773.84;5058621;28;20385;-78
2023/01/01 06:26:31;;;;;;;;;;;;;;;6.37;100.00;93765.47;5075739;28;19938;-78
2023/01/01 06:28:56;;;;;;;;;;;;;;;6.35;100.00;93773.50;5074720;28;19941;-78
2023/01/01 06:31:22;;;;;;;;;;;;;;;6.36;100.00;93769.88;5058237;28;20381;-77
2023/01/01 06:33:49;;;;;;;;;;;;;;;6.34;100.00;93774.50;5076735;28;19965;-79
2023/01/01 06:36:16;;;;;;;;;;;;;;;6.34;100.00;93771.13;5058985;28;20007;-77
2023/01/01 06:38:42;;;;;;;;;;;;;;;6.32;100.00;93767.97;5077244;28;20407;-78
2023/01/01 06:41:15;;;;;;;;;;;;;;;6.32;100.00;93763.56;5076632;28;19987;-78
2023/01/01 06:43:41;;;;;;;;;;;;;;;6.31;100.00;93769.78;5051559;28;20391;-79
2023/01/01 06:46:20;;;;;;;;;;;;;;;6.32;100.00;93773.94;5068021;28;20007;-78
2023/01/01 06:48:46;;;;;;;;;;;;;;;6.33;100.00;93767.75;5062592;28;20239;-78
2023/01/01 06:51:13;;;;;;;;;;;;;;;6.33;100.00;93767.75;5048029;28;19951;-78
2023/01/01 06:53:39;;;;;;;;;;;;;;;6.33;100.00;93770.34;5058322;28;19908;-79
2023/01/01 06:56:05;;;;;;;;;;;;;;;6.36;100.00;93779.50;5076278;28;19951;-78
2023/01/01 06:58:30;;;;;;;;;;;;;;;6.36;100.00;93769.09;5075889;28;19922;-77
2023/01/01 07:01:03;;;;;;;;;;;;;;;6.36;100.00;93772.47;5076319;28;19965;-78
2023/01/01 07:03:28;;;;;;;;;;;;;;;6.38;100.00;93772.25;5076273;28;19969;-78
2023/01/01 07:05:53;;;;;;;;;;;;;;;6.39;100.00;93766.03;5059174;28;20006;-79
2023/01/01 07:08:19;;;;;;;;;;;;;;;6.40;100.00;93771.00;5058229;28;19912;-79
2023/01/01 07:10:44;;;;;;;;;;;;;;;6.41;100.00;93772.56;5076023;28;19920;-79
2023/01/01 07:13:10;;;;;;;;;;;;;;;6.42;100.00;93774.19;5076423;28;19920;-80
2023/01/01 07:15:36;;;;;;;;;;;;;;;6.42;100.00;93771.56;5076160;28;19916;-80
2023/01/01 07:18:01;;;;;;;;;;;;;;;6.41;100.00;93775.19;5076880;28;20006;-80
2023/01/01 07:20:27;;;;;;;;;;;;;;;6.43;100.00;93780.16;5076110;28;19956;-80
2023/01/01 07:22:52;;;;;;;;;;;;;;;6.42;100.00;93779.38;5075942;28;19916;-79
2023/01/01 07:25:18;;;;;;;;;;;;;;;6.42;100.00;93779.38;5074880;28;19923;-79
2023/01/01 07:27:43;;;;;;;;;;;;;;;6.44;100.00;93782.53;5057821;28;20003;-80
2023/01/01 07:30:09;;;;;;;;;;;;;;;6.46;100.00;93782.31;5075924;28;19923;-79
2023/01/01 07:32:34;;;;;;;;;;;;;;;6.47;100.00;93779.47;5075118;28;19916;-77
2023/01/01 07:35:00;;;;;;;;;;;;;;;6.49;100.00;93778.47;5058228;28;19931;-80
2023/01/01 07:37:25;;;;;;;;;;;;;;;6.52;100.00;93785.81;5057927;28;19916;-80
2023/01/01 07:39:51;;;;;;;;;;;;;;;6.53;100.00;93785.59;5076147;28;19916;-80
2023/01/01 07:42:16;;;;;;;;;;;;;;;6.64;100.00;93786.56;5058475;28;19931;-79
2023/01/01 07:44:42;;;;;;;;;;;;;;;6.57;100.00;93784.09;5040878;28;19935;-80
2023/01/01 07:47:24;;;;;;;;;;;;;;;6.54;100.00;93797.56;5065700;28;19943;-80
2023/01/01 07:49:50;;;;;;;;;;;;;;;6.52;100.00;93797.00;5054821;28;20015;-80
2023/01/01 07:52:15;;;;;;;;;;;;;;;6.52;100.00;93798.81;5056108;28;19962;-80
2023/01/01 07:54:41;;;;;;;;;;;;;;;6.51;100.00;93797.22;5038148;28;19917;-78
2023/01/01 07:57:06;;;;;;;;;;;;;;;6.52;100.00;93801.41;5055736;28;19920;-79
2023/01/01 07:59:32;;;;;;;;;;;;;;;6.52;100.00;93806.63;5036806;28;19916;-78
2023/01/01 08:01:58;;;;;;;;;;;;;;;6.53;100.00;93800.38;5061186;28;19963;-78
2023/01/01 08:04:25;;;;;;;;;;;;;;;6.57;100.00;93797.09;5076304;28;19916;-77
2023/01/01 08:06:51;;;;;;;;;;;;;;;6.60;100.00;93806.28;5058518;28;19928;-79
2023/01/01 08:09:16;;;;;;;;;;;;;;;6.65;100.00;93806.38;5070447;28;19916;-79
2023/01/01 08:11:42;;;;;;;;;;;;;;;6.79;100.00;93805.09;5075067;28;20019;-78
2023/01/01 08:14:07;;;;;;;;;;;;;;;6.75;100.00;93808.38;5079741;28;20133;-79
2023/01/01 08:16:33;;;;;;;;;;;;;;;6.73;100.00;93806.00;5070291;28;19927;-78
2023/01/01 08:18:58;;;;;;;;;;;;;;;6.72;100.00;93811.47;5073307;28;20199;-78
2023/01/01 08:21:23;;;;;;;;;;;;;;;6.73;100.00;93811.22;5075248;28;19920;-78
2023/01/01 08:23:49;;;;;;;;;;;;;;;6.74;100.00;93807.59;5074126;28;19917;-78
2023/01/01 08:26:15;;;;;;;;;;;;;;;6.77;100.00;93801.16;5071212;28;19928;-77
2023/01/01 08:28:42;;;;;;;;;;;;;;;6.80;100.00;93809.28;5084041;28;19975;-78
2023/01/01 08:31:07;;;;;;;;;;;;;;;6.84;100.00;93807.78;5084294;28;19920;-79
2023/01/01 08:33:33;;;;;;;;;;;;;;;6.87;100.00;93807.34;5045883;28;19920;-77
2023/01/01 08:35:59;;;;;;;;;;;;;;;6.83;100.00;93805.44;5081947;28;19920;-78
2023/01/01 08:38:24;;;;;;;;;;;;;;;6.84;100.00;93807.00;5071744;28;19913;-78
2023/01/01 08:40:50;;;;;;;;;;;;;;;6.87;100.00;93809.94;5052573;28;20421;-79
2023/01/01 08:43:16;;;;;;;;;;;;;;;6.91;100.00;93809.47;5052065;28;19912;-79
2023/01/01 08:45:47;;;;;;;;;;;;;;;6.93;100.00;93805.63;5034886;28;20007;-77
2023/01/01 08:48:20;;;;;;;;;;;;;;;7.00;100.00;93810.69;5055760;28;20006;-79
2023/01/01 08:50:54;;;;;;;;;;;;;;;7.06;100.00;93807.19;5067597;28;20430;-79
2023/01/01 08:53:20;;;;;;;;;;;;;;;7.11;100.00;93812.47;5071661;28;20313;-79
2023/01/01 08:55:54;;;;;;;;;;;;;;;7.29;100.00;93809.72;5055077;28;20003;-78
2023/01/01 08:58:19;;;;;;;;;;;;;;;7.45;100.00;93812.56;5063875;28;19986;-79
2023/01/01 09:00:45;;;;;;;;;;;;;;;7.44;100.00;93806.56;5061527;28;19917;-78
2023/01/01 09:03:10;;;;;;;;;;;;;;;7.45;100.00;93812.56;5052196;28;19939;-81
2023/01/01 09:05:36;;;;;;;;;;;;;;;7.48;100.00;93814.72;5066750;28;19971;-81
2023/01/01 09:08:02;;;;;;;;;;;;;;;7.57;100.00;93810.72;5067775;28;19920;-79
2023/01/01 09:10:27;;;;;;;;;;;;;;;7.61;100.00;93811.81;5076055;28;20550;-79
2023/01/01 09:12:52;;;;;;;;;;;;;;;7.55;100.00;93812.75;5068528;28;19968;-77
2023/01/01 09:15:18;;;;;;;;;;;;;;;7.57;100.00;93815.13;5062170;28;19924;-79
2023/01/01 09:17:43;;;;;;;;;;;;;;;7.65;100.00;93810.31;5054374;28;20282;-79
2023/01/01 09:20:09;;;;;;;;;;;;;;;7.80;100.00;93814.22;5067684;28;20011;-77
2023/01/01 09:22:34;;;;;;;;;;;;;;;7.75;100.00;93814.13;5070844;28;19943;-80
2023/01/01 09:25:01;;;;;;;;;;;;;;;7.73;100.00;93814.34;5049398;28;19927;-80
2023/01/01 09:27:26;;;;;;;;;;;;;;;7.91;100.00;93821.16;5065449;28;19920;-79
2023/01/01 09:29:52;;;;;;;;;;;;;;;7.82;100.00;93823.38;5072404;28;19974;-79
2023/01/01 09:32:18;;;;;;;;;;;;;;;7.69;100.00;93828.88;5033893;28;19984;-79
2023/01/01 09:34:44;;;;;;;;;;;;;;;7.69;100.00;93827.06;5074349;28;20246;-78
2023/01/01 09:37:09;;;;;;;;;;;;;;;7.70;100.00;93825.25;5054087;28;20010;-79
2023/01/01 09:39:34;;;;;;;;;;;;;;;7.77;100.00;93828.50;5054052;28;20032;-78
2023/01/01 09:42:03;;;;;;;;;;;;;;;7.82;100.00;93825.19;5058419;28;19924;-79
2023/01/01 09:44:44;;;;;;;;;;;;;;;7.86;100.00;93827.09;5065943;28;19920;-80
2023/01/01 09:47:19;;;;;;;;;;;;;;;7.93;100.00;93824.34;5069460;28;19974;-78
2023/01/01 09:49:45;;;;;;;;;;;;;;;8.03;100.00;93816.66;5060779;28;19970;-77
2023/01/01 09:52:13;;;;;;;;;;;;;;;8.14;100.00;93812.38;5039624;28;19916;-78
2023/01/01 09:54:58;;;;;;;;;;;;;;;8.12;100.00;93817.84;5066348;28;22270;-80
2023/01/01 09:57:27;;;;;;;;;;;;;;;7.96;100.00;93816.03;5072995;28;19974;-78
2023/01/01 09:59:53;;;;;;;;;;;;;;;7.89;100.00;93808.34;5042384;28;19927;-78
2023/01/01 10:02:30;;;;;;;;;;;;;;;7.91;100.00;93808.13;5073772;28;19916;-79
2023/01/01 10:05:07;;;;;;;;;;;;;;;7.99;100.00;93817.38;5068861;28;20406;-79
2023/01/01 10:07:45;;;;;;;;;;;;;;;7.99;100.00;93818.16;5068343;28;19918;-79
2023/01/01 10:10:29;;;;;;;;;;;;;;;8.00;100.00;93804.09;5038149;28;19920;-79
2023/01/01 10:13:03;;;;;;;;;;;;;;;8.02;100.00;93807.25;5067603;28;19913;-79
2023/01/01 10:15:31;;;;;;;;;;;;;;;8.06;100.00;93807.56;5069875;28;19916;-79
2023/01/01 10:17:59;;;;;;;;;;;;;;;8.10;100.00;93798.25;5071552;28;20031;-79
2023/01/01 10:20:24;;;;;;;;;;;;;;;8.14;100.00;93796.75;5068642;28;20313;-77
2023/01/01 10:22:52;;;;;;;;;;;;;;;8.19;100.00;93790.81;5072051;28;19921;-78
2023/01/01 10:25:20;;;;;;;;;;;;;;;8.24;100.00;93785.66;5066572;28;19916;-80
2023/01/01 10:27:51;;;;;;;;;;;;;;;8.30;100.00;93784.69;5066094;28;19962;-80
2023/01/01 10:30:18;;;;;;;;;;;;;;;8.33;100.00;93786.81;5071854;28;19970;-79
2023/01/01 10:32:48;;;;;;;;;;;;;;;8.18;100.00;93778.81;5046864;28;19924;-80
2023/01/01 10:35:18;;;;;;;;;;;;;;;8.12;100.00;93781.31;5028736;28;19920;-80
2023/01/01 10:37:44;;;;;;;;;;;;;;;8.17;100.00;93782.44;5085539;28;19912;-81
2023/01/01 10:40:13;;;;;;;;;;;;;;;8.22;100.00;93785.09;5065378;28;19913;-82
2023/01/01 10:42:39;;;;;;;;;;;;;;;8.08;100.00;93775.03;5061298;28;19912;-79
2023/01/01 10:45:04;;;;;;;;;;;;;;;8.10;100.00;93778.16;5076641;28;20029;-79
2023/01/01 10:47:30;;;;;;;;;;;;;;;8.17;100.00;93778.00;5061777;28;20397;-80
2023/01/01 10:49:56;;;;;;;;;;;;;;;8.23;100.00;93776.25;5072744;28;19920;-80
2023/01/01 10:52:25;;;;;;;;;;;;;;;8.28;100.00;93774.50;5050190;28;20011;-79
2023/01/01 10:54:50;;;;;;;;;;;;;;;8.38;100.00;93773.88;5067727;28;20298;-82
2023/01/01 10:57:19;;;;;;;;;;;;;;;8.44;100.00;93775.53;5054998;28;19920;-83
2023/01/01 10:59:44;;;;;;;;;;;;;;;8.50;100.00;93771.97;5068120;28;19924;-80
2023/01/01 11:02:26;;;;;;;;;;;;;;;8.55;100.00;93773.84;5071003;28;20167;-79
2023/01/01 11:05:12;;;;;;;;;;;;;;;8.59;100.00;93768.94;5073480;28;19982;-80
2023/01/01 11:07:39;;;;;;;;;;;;;;;8.62;100.00;93766.63;5077187;28;19947;-78
2023/01/01 11:10:05;;;;;;;;;;;;;;;8.61;100.00;93761.66;5060093;28;19921;-79
2023/01/01 11:12:35;;;;;;;;;;;;;;;8.61;100.00;93761.66;5076173;28;19928;-79
2023/01/01 11:15:00;;;;;;;;;;;;;;;8.61;100.00;93761.66;5065707;28;20033;-80
2023/01/01 11:17:27;;;;;;;;;;;;;;;8.60;100.00;93760.06;5055327;28;19912;-81
2023/01/01 11:19:53;;;;;;;;;;;;;;;8.60;100.00;93760.06;5068391;28;20148;-82
2023/01/01 11:22:37;;;;;;;;;;;;;;;8.59;100.00;93753.28;5064078;28;20271;-81
2023/01/01 11:25:04;;;;;;;;;;;;;;;8.57;100.00;93750.13;5072954;28;19912;-80
2023/01/01 11:27:29;;;;;;;;;;;;;;;8.55;100.00;93758.97;5065066;28;19916;-81
2023/01/01 11:30:13;;;;;;;;;;;;;;;8.57;100.00;93752.72;5057346;28;19916;-79
2023/01/01 11:32:39;;;;;;;;;;;;;;;8.57;100.00;93753.50;5077618;28;20334;-81
2023/01/01 11:35:06;;;;;;;;;;;;;;;8.60;100.00;93749.63;5071179;28;20038;-83
2023/01/01 11:37:34;;;;;;;;;;;;;;;8.61;100.00;93743.38;5069944;28;19967;-80
2023/01/01 11:40:01;;;;;;;;;;;;;;;8.64;100.00;93740.28;5064472;28;21270;-81
2023/01/01 11:42:29;;;;;;;;;;;;;;;8.62;100.00;93735.28;5066884;28;19921;-82
2023/01/01 11:45:36;;;;;;;;;;;;;;;8.64;100.00;93732.47;5069674;28;20034;-81
2023/01/01 11:48:04;;;;;;;;;;;;;;;8.64;100.00;93729.84;4997516;28;19917;-80
2023/01/01 11:50:29;;;;;;;;;;;;;;;8.67;100.00;93724.13;4989327;28;19936;-80
2023/01/01 11:52:57;;;;;;;;;;;;;;;8.69;100.00;93722.06;5020076;28;19935;-80
2023/01/01 11:55:36;;;;;;;;;;;;;;;8.71;100.00;93720.00;5062637;28;19920;-80
2023/01/01 11:58:05;;;;;;;;;;;;;;;8.74;100.00;93719.53;5072593;28;19919;-81
2023/01/01 12:00:33;;;;;;;;;;;;;;;8.75;100.00;93715.88;5073729;28;20442;-81
2023/01/01 12:03:00;;;;;;;;;;;;;;;8.80;100.00;93707.31;5053027;28;20385;-81
2023/01/01 12:05:33;;;;;;;;;;;;;;;8.87;100.00;93710.50;5070254;28;19913;-81
2023/01/01 12:08:02;;;;;;;;;;;;;;;8.84;100.00;93708.41;5074715;28;19912;-82
2023/01/01 12:10:30;;;;;;;;;;;;;;;8.59;100.00;93708.91;5067450;28;19912;-80
2023/01/01 12:13:06;;;;;;;;;;;;;;;8.45;100.00;93701.44;5069832;28;20354;-80
2023/01/01 12:15:37;;;;;;;;;;;;;;;8.48;100.00;93693.13;5070714;28;20450;-79
2023/01/01 12:18:17;;;;;;;;;;;;;;;8.51;100.00;93691.84;5048649;28;19916;-78
2023/01/01 12:20:55;;;;;;;;;;;;;;;8.45;100.00;93701.44;5062849;28;19924;-79
2023/01/01 12:23:20;;;;;;;;;;;;;;;8.38;100.00;93698.19;5064672;28;19916;-79
2023/01/01 12:25:50;;;;;;;;;;;;;;;8.32;100.00;93699.16;5031650;28;19917;-79
2023/01/01 12:28:26;;;;;;;;;;;;;;;8.35;100.00;93690.84;5064420;28;20296;-77
2023/01/01 12:31:00;;;;;;;;;;;;;;;8.44;100.00;93699.06;5047376;28;19916;-79
2023/01/01 12:33:38;;;;;;;;;;;;;;;8.60;100.00;93697.44;5036619;28;19917;-79
2023/01/01 12:36:24;;;;;;;;;;;;;;;8.70;100.00;93692.34;5055855;28;20420;-80
2023/01/01 12:38:50;;;;;;;;;;;;;;;8.77;100.00;93687.69;5070837;28;19920;-81
2023/01/01 12:41:34;;;;;;;;;;;;;;;8.85;100.00;93679.44;5066947;28;19915;-80
2023/01/01 12:44:05;;;;;;;;;;;;;;;8.92;100.00;93677.41;5072361;28;19916;-81
2023/01/01 12:46:48;;;;;;;;;;;;;;;8.98;100.00;93677.47;5076281;28;19963;-81
2023/01/01 12:49:19;;;;;;;;;;;;;;;8.92;100.00;93672.19;5072004;28;20370;-80
2023/01/01 12:52:02;;;;;;;;;;;;;;;8.81;100.00;93672.34;5073473;28;19916;-81
2023/01/01 12:54:38;;;;;;;;;;;;;;;8.74;100.00;93667.31;5072345;28;19935;-81
2023/01/01 13:01:02;;;;;;;;;;;;;;;8.79;100.00;93659.53;5040080;28;19919;-82
2023/01/01 13:07:17;;;;;;;;;;;;;;;8.92;100.00;93661.75;5037078;28;20107;-80